sensor_id;sensor_type;location;lat;lon;timestamp;pressure;altitude;pressure_sealevel;temperature;humidity
21960;BME280;11144;43.030;25.108;2023-07-13T00:01:17;99394.44;;;22.39;70.94
21960;BME280;11144;43.030;25.108;2023-07-13T00:02:50;99394.66;;;22.37;70.89
21960;BME280;11144;43.030;25.108;2023-07-13T00:04:25;99397.34;;;22.37;70.58
21960;BME280;11144;43.030;25.108;2023-07-13T00:06:00;99401.09;;;22.36;71.04
21960;BME280;11144;43.030;25.108;2023-07-13T00:07:32;99393.56;;;22.33;71.21
21960;BME280;11144;43.030;25.108;2023-07-13T00:09:05;99392.75;;;22.28;71.29
21960;BME280;11144;43.030;25.108;2023-07-13T00:10:42;99390.53;;;22.20;71.60
21960;BME280;11144;43.030;25.108;2023-07-13T00:12:25;99390.75;;;22.13;71.92
21960;BME280;11144;43.030;25.108;2023-07-13T00:13:58;99389.09;;;22.07;71.59
21960;BME280;11144;43.030;25.108;2023-07-13T00:15:31;99388.53;;;22.05;71.82
21960;BME280;11144;43.030;25.108;2023-07-13T00:17:04;99384.72;;;21.96;71.55
21960;BME280;11144;43.030;25.108;2023-07-13T00:18:37;99378.78;;;21.89;71.80
21960;BME280;11144;43.030;25.108;2023-07-13T00:20:10;99387.34;;;21.91;72.02
21960;BME280;11144;43.030;25.108;2023-07-13T00:21:44;99388.97;;;21.92;72.04
21960;BME280;11144;43.030;25.108;2023-07-13T00:23:16;99379.31;;;21.91;71.38
21960;BME280;11144;43.030;25.108;2023-07-13T00:24:51;99381.00;;;21.97;71.72
21960;BME280;11144;43.030;25.108;2023-07-13T00:26:25;99384.22;;;21.99;71.62
21960;BME280;11144;43.030;25.108;2023-07-13T00:27:58;99374.53;;;21.93;71.77
21960;BME280;11144;43.030;25.108;2023-07-13T00:29:31;99375.06;;;21.90;71.59
21960;BME280;11144;43.030;25.108;2023-07-13T00:31:06;99382.53;;;21.88;71.87
21960;BME280;11144;43.030;25.108;2023-07-13T00:32:40;99375.84;;;21.90;71.70
21960;BME280;11144;43.030;25.108;2023-07-13T00:34:13;99370.72;;;21.84;71.58
21960;BME280;11144;43.030;25.108;2023-07-13T00:35:45;99372.03;;;21.81;72.16
21960;BME280;11144;43.030;25.108;2023-07-13T00:37:20;99369.84;;;21.78;71.92
21960;BME280;11144;43.030;25.108;2023-07-13T00:38:52;99370.94;;;21.82;72.02
21960;BME280;11144;43.030;25.108;2023-07-13T00:40:26;99367.47;;;21.82;71.91
21960;BME280;11144;43.030;25.108;2023-07-13T00:42:00;99366.81;;;21.70;72.23
21960;BME280;11144;43.030;25.108;2023-07-13T00:43:33;99367.38;;;21.72;71.81
21960;BME280;11144;43.030;25.108;2023-07-13T00:47:20;99376.44;;;21.71;72.14
21960;BME280;11144;43.030;25.108;2023-07-13T00:48:54;99372.16;;;21.70;72.05
21960;BME280;11144;43.030;25.108;2023-07-13T00:50:28;99367.06;;;21.68;72.12
21960;BME280;11144;43.030;25.108;2023-07-13T00:52:05;99372.66;;;21.67;72.15
21960;BME280;11144;43.030;25.108;2023-07-13T00:53:38;99366.81;;;21.70;72.09
21960;BME280;11144;43.030;25.108;2023-07-13T00:55:13;99370.31;;;21.70;72.04
21960;BME280;11144;43.030;25.108;2023-07-13T00:56:49;99371.06;;;21.66;72.16
21960;BME280;11144;43.030;25.108;2023-07-13T00:58:24;99360.38;;;21.66;72.39
21960;BME280;11144;43.030;25.108;2023-07-13T00:59:59;99369.38;;;21.60;72.14
21960;BME280;11144;43.030;25.108;2023-07-13T01:01:35;99362.13;;;21.55;72.47
21960;BME280;11144;43.030;25.108;2023-07-13T01:03:09;99368.59;;;21.59;72.26
21960;BME280;11144;43.030;25.108;2023-07-13T01:04:41;99362.69;;;21.57;72.25
21960;BME280;11144;43.030;25.108;2023-07-13T01:06:16;99358.06;;;21.48;72.91
21960;BME280;11144;43.030;25.108;2023-07-13T01:07:51;99364.41;;;21.42;72.88
21960;BME280;11144;43.030;25.108;2023-07-13T01:09:26;99365.34;;;21.31;72.69
21960;BME280;11144;43.030;25.108;2023-07-13T01:10:59;99366.31;;;21.24;73.24
21960;BME280;11144;43.030;25.108;2023-07-13T01:12:32;99363.34;;;21.21;73.09
21960;BME280;11144;43.030;25.108;2023-07-13T01:14:07;99367.63;;;21.22;73.32
21960;BME280;11144;43.030;25.108;2023-07-13T01:15:43;99364.41;;;21.20;73.30
21960;BME280;11144;43.030;25.108;2023-07-13T01:17:16;99366.50;;;21.18;73.10
21960;BME280;11144;43.030;25.108;2023-07-13T01:18:50;99367.50;;;21.12;73.69
21960;BME280;11144;43.030;25.108;2023-07-13T01:20:22;99363.63;;;21.03;73.78
21960;BME280;11144;43.030;25.108;2023-07-13T01:21:58;99356.69;;;21.02;73.66
21960;BME280;11144;43.030;25.108;2023-07-13T01:23:32;99368.72;;;21.04;73.96
21960;BME280;11144;43.030;25.108;2023-07-13T01:25:05;99364.47;;;21.03;73.78
21960;BME280;11144;43.030;25.108;2023-07-13T01:26:39;99365.19;;;20.99;73.74
21960;BME280;11144;43.030;25.108;2023-07-13T01:28:11;99360.03;;;20.92;73.70
21960;BME280;11144;43.030;25.108;2023-07-13T01:29:45;99363.56;;;20.98;74.14
21960;BME280;11144;43.030;25.108;2023-07-13T01:31:19;99356.84;;;20.95;73.99
21960;BME280;11144;43.030;25.108;2023-07-13T01:32:52;99365.91;;;20.94;73.60
21960;BME280;11144;43.030;25.108;2023-07-13T01:34:26;99356.84;;;20.95;73.62
21960;BME280;11144;43.030;25.108;2023-07-13T01:35:58;99359.78;;;20.94;73.91
21960;BME280;11144;43.030;25.108;2023-07-13T01:37:33;99366.09;;;20.88;74.04
21960;BME280;11144;43.030;25.108;2023-07-13T01:39:07;99352.06;;;20.76;74.41
21960;BME280;11144;43.030;25.108;2023-07-13T01:40:41;99363.88;;;20.80;74.43
21960;BME280;11144;43.030;25.108;2023-07-13T01:42:14;99352.88;;;20.76;74.20
21960;BME280;11144;43.030;25.108;2023-07-13T01:43:47;99358.22;;;20.76;74.36
21960;BME280;11144;43.030;25.108;2023-07-13T01:45:19;99358.28;;;20.81;74.31
21960;BME280;11144;43.030;25.108;2023-07-13T01:46:53;99362.81;;;20.81;74.24
21960;BME280;11144;43.030;25.108;2023-07-13T01:48:25;99360.94;;;20.81;74.18
21960;BME280;11144;43.030;25.108;2023-07-13T01:49:58;99361.50;;;20.83;74.04
21960;BME280;11144;43.030;25.108;2023-07-13T01:51:31;99358.28;;;20.81;74.30
21960;BME280;11144;43.030;25.108;2023-07-13T01:53:06;99357.22;;;20.82;74.30
21960;BME280;11144;43.030;25.108;2023-07-13T01:54:38;99365.00;;;20.84;74.30
21960;BME280;11144;43.030;25.108;2023-07-13T01:56:13;99362.56;;;20.82;74.43
21960;BME280;11144;43.030;25.108;2023-07-13T01:57:46;99362.56;;;20.82;74.33
21960;BME280;11144;43.030;25.108;2023-07-13T01:59:20;99363.91;;;20.85;74.17
21960;BME280;11144;43.030;25.108;2023-07-13T02:00:53;99356.19;;;20.83;74.43
21960;BME280;11144;43.030;25.108;2023-07-13T02:02:25;99363.69;;;20.86;74.09
21960;BME280;11144;43.030;25.108;2023-07-13T02:03:59;99357.78;;;20.84;74.24
21960;BME280;11144;43.030;25.108;2023-07-13T02:05:33;99370.88;;;20.86;74.46
21960;BME280;11144;43.030;25.108;2023-07-13T02:07:07;99370.63;;;20.87;74.53
21960;BME280;11144;43.030;25.108;2023-07-13T02:08:42;99368.50;;;20.89;74.09
21960;BME280;11144;43.030;25.108;2023-07-13T02:10:15;99369.31;;;20.90;74.36
21960;BME280;11144;43.030;25.108;2023-07-13T02:11:48;99370.94;;;20.91;74.55
21960;BME280;11144;43.030;25.108;2023-07-13T02:13:21;99358.78;;;20.78;74.73
21960;BME280;11144;43.030;25.108;2023-07-13T02:14:53;99368.69;;;20.83;74.52
21960;BME280;11144;43.030;25.108;2023-07-13T02:16:27;99369.50;;;20.83;74.70
21960;BME280;11144;43.030;25.108;2023-07-13T02:17:59;99366.59;;;20.85;74.94
21960;BME280;11144;43.030;25.108;2023-07-13T02:19:33;99368.69;;;20.83;74.45
21960;BME280;11144;43.030;25.108;2023-07-13T02:21:06;99370.31;;;20.84;74.81
21960;BME280;11144;43.030;25.108;2023-07-13T02:22:39;99368.44;;;20.84;74.85
21960;BME280;11144;43.030;25.108;2023-07-13T02:24:13;99365.78;;;20.84;74.17
21960;BME280;11144;43.030;25.108;2023-07-13T02:25:52;99368.88;;;20.76;74.38
21960;BME280;11144;43.030;25.108;2023-07-13T02:27:27;99369.31;;;20.68;74.60
21960;BME280;11144;43.030;25.108;2023-07-13T02:28:59;99369.22;;;20.63;74.67
21960;BME280;11144;43.030;25.108;2023-07-13T02:30:34;99366.97;;;20.55;74.62
21960;BME280;11144;43.030;25.108;2023-07-13T02:32:07;99370.19;;;20.57;74.83
21960;BME280;11144;43.030;25.108;2023-07-13T02:33:41;99367.03;;;20.60;74.51
21960;BME280;11144;43.030;25.108;2023-07-13T02:35:13;99374.53;;;20.63;74.70
21960;BME280;11144;43.030;25.108;2023-07-13T02:36:47;99375.84;;;20.61;74.81
21960;BME280;11144;43.030;25.108;2023-07-13T02:38:19;99377.47;;;20.62;74.61
21960;BME280;11144;43.030;25.108;2023-07-13T02:39:54;99363.03;;;20.58;74.81
21960;BME280;11144;43.030;25.108;2023-07-13T02:41:27;99376.09;;;20.59;74.84
21960;BME280;11144;43.030;25.108;2023-07-13T02:42:59;99374.25;;;20.60;74.71
21960;BME280;11144;43.030;25.108;2023-07-13T02:44:35;99377.94;;;20.58;74.81
21960;BME280;11144;43.030;25.108;2023-07-13T02:46:08;99372.88;;;20.57;74.76
21960;BME280;11144;43.030;25.108;2023-07-13T02:47:42;99379.22;;;20.56;74.89
21960;BME280;11144;43.030;25.108;2023-07-13T02:49:16;99381.34;;;20.54;74.92
21960;BME280;11144;43.030;25.108;2023-07-13T02:50:48;99378.66;;;20.54;74.95
21960;BME280;11144;43.030;25.108;2023-07-13T02:52:21;99386.66;;;20.54;74.94
21960;BME280;11144;43.030;25.108;2023-07-13T02:53:54;99373.78;;;20.46;75.17
21960;BME280;11144;43.030;25.108;2023-07-13T02:55:29;99390.78;;;20.45;75.12
21960;BME280;11144;43.030;25.108;2023-07-13T02:57:04;99380.06;;;20.40;75.11
21960;BME280;11144;43.030;25.108;2023-07-13T02:58:36;99383.22;;;20.37;75.76
21960;BME280;11144;43.030;25.108;2023-07-13T03:00:11;99381.59;;;20.36;75.62
21960;BME280;11144;43.030;25.108;2023-07-13T03:01:45;99377.81;;;20.32;75.72
21960;BME280;11144;43.030;25.108;2023-07-13T03:03:18;99377.16;;;20.25;75.19
21960;BME280;11144;43.030;25.108;2023-07-13T03:04:51;99372.16;;;20.28;75.60
21960;BME280;11144;43.030;25.108;2023-07-13T03:06:25;99360.63;;;20.23;75.59
21960;BME280;11144;43.030;25.108;2023-07-13T03:08:03;99376.59;;;20.39;75.36
21960;BME280;11144;43.030;25.108;2023-07-13T03:09:36;99376.91;;;20.43;75.40
21960;BME280;11144;43.030;25.108;2023-07-13T03:11:14;99374.81;;;20.45;75.40
21960;BME280;11144;43.030;25.108;2023-07-13T03:12:49;99377.00;;;20.48;74.96
21960;BME280;11144;43.030;25.108;2023-07-13T03:14:28;99376.09;;;20.42;75.32
21960;BME280;11144;43.030;25.108;2023-07-13T03:16:00;99382.16;;;20.38;75.37
21960;BME280;11144;43.030;25.108;2023-07-13T03:17:34;99374.41;;;20.36;75.31
21960;BME280;11144;43.030;25.108;2023-07-13T03:19:06;99380.38;;;20.43;75.06
21960;BME280;11144;43.030;25.108;2023-07-13T03:20:41;99387.09;;;20.46;75.09
21960;BME280;11144;43.030;25.108;2023-07-13T03:22:15;99384.91;;;20.43;75.17
21960;BME280;11144;43.030;25.108;2023-07-13T03:23:48;99382.97;;;20.38;75.24
21960;BME280;11144;43.030;25.108;2023-07-13T03:25:21;99381.66;;;20.41;75.04
21960;BME280;11144;43.030;25.108;2023-07-13T03:26:56;99380.63;;;20.42;75.05
21960;BME280;11144;43.030;25.108;2023-07-13T03:28:30;99385.53;;;20.50;75.02
21960;BME280;11144;43.030;25.108;2023-07-13T03:30:03;99384.00;;;20.54;74.84
21960;BME280;11144;43.030;25.108;2023-07-13T03:31:37;99390.44;;;20.58;74.80
21960;BME280;11144;43.030;25.108;2023-07-13T03:33:10;99385.13;;;20.58;74.97
21960;BME280;11144;43.030;25.108;2023-07-13T03:34:43;99387.78;;;20.58;74.87
21960;BME280;11144;43.030;25.108;2023-07-13T03:36:18;99389.50;;;20.64;74.81
21960;BME280;11144;43.030;25.108;2023-07-13T03:37:53;99367.53;;;20.57;74.66
21960;BME280;11144;43.030;25.108;2023-07-13T03:39:26;99389.16;;;20.77;74.57
21960;BME280;11144;43.030;25.108;2023-07-13T03:41:02;99383.31;;;20.80;74.53
21960;BME280;11144;43.030;25.108;2023-07-13T03:42:36;99386.53;;;20.82;74.48
21960;BME280;11144;43.030;25.108;2023-07-13T03:44:10;99391.31;;;20.80;74.51
21960;BME280;11144;43.030;25.108;2023-07-13T03:45:44;99389.72;;;20.79;74.50
21960;BME280;11144;43.030;25.108;2023-07-13T03:47:18;99389.19;;;20.82;74.57
21960;BME280;11144;43.030;25.108;2023-07-13T03:48:52;99385.19;;;20.80;74.54
21960;BME280;11144;43.030;25.108;2023-07-13T03:50:24;99378.50;;;20.77;74.31
21960;BME280;11144;43.030;25.108;2023-07-13T03:51:57;99382.25;;;20.81;74.32
21960;BME280;11144;43.030;25.108;2023-07-13T03:53:30;99388.41;;;20.82;74.42
21960;BME280;11144;43.030;25.108;2023-07-13T03:55:04;99395.66;;;20.86;74.27
21960;BME280;11144;43.030;25.108;2023-07-13T03:56:38;99389.34;;;20.92;74.07
21960;BME280;11144;43.030;25.108;2023-07-13T03:58:26;99390.09;;;20.88;74.25
21960;BME280;11144;43.030;25.108;2023-07-13T04:00:03;99389.00;;;20.89;74.22
21960;BME280;11144;43.030;25.108;2023-07-13T04:01:46;99384.03;;;20.92;74.33
21960;BME280;11144;43.030;25.108;2023-07-13T04:03:20;99385.69;;;20.98;74.11
21960;BME280;11144;43.030;25.108;2023-07-13T04:04:53;99390.63;;;21.06;74.22
21960;BME280;11144;43.030;25.108;2023-07-13T04:06:30;99388.28;;;21.10;73.76
21960;BME280;11144;43.030;25.108;2023-07-13T04:08:02;99385.44;;;21.16;73.50
21960;BME280;11144;43.030;25.108;2023-07-13T04:09:37;99400.44;;;21.22;73.70
21960;BME280;11144;43.030;25.108;2023-07-13T04:11:11;99393.50;;;21.21;73.67
21960;BME280;11144;43.030;25.108;2023-07-13T04:12:44;99397.38;;;21.36;73.23
21960;BME280;11144;43.030;25.108;2023-07-13T04:14:18;99392.13;;;21.41;73.42
21960;BME280;11144;43.030;25.108;2023-07-13T04:15:52;99399.66;;;21.49;73.23
21960;BME280;11144;43.030;25.108;2023-07-13T04:17:25;99396.88;;;21.60;72.78
21960;BME280;11144;43.030;25.108;2023-07-13T04:18:58;99399.41;;;21.72;72.55
21960;BME280;11144;43.030;25.108;2023-07-13T04:20:32;99398.69;;;21.81;72.14
21960;BME280;11144;43.030;25.108;2023-07-13T04:22:06;99401.75;;;21.90;72.25
21960;BME280;11144;43.030;25.108;2023-07-13T04:23:40;99372.41;;;21.90;72.10
21960;BME280;11144;43.030;25.108;2023-07-13T04:25:12;99390.84;;;22.23;72.57
21960;BME280;11144;43.030;25.108;2023-07-13T04:26:45;99368.78;;;22.38;72.56
21960;BME280;11144;43.030;25.108;2023-07-13T04:28:20;99386.69;;;22.74;72.17
21960;BME280;11144;43.030;25.108;2023-07-13T04:29:54;99380.69;;;22.99;72.34
21960;BME280;11144;43.030;25.108;2023-07-13T04:31:28;99383.19;;;23.25;72.33
21960;BME280;11144;43.030;25.108;2023-07-13T04:33:00;99380.91;;;23.49;71.40
21960;BME280;11144;43.030;25.108;2023-07-13T04:34:34;99386.31;;;23.74;70.59
21960;BME280;11144;43.030;25.108;2023-07-13T04:36:08;99385.28;;;23.95;70.68
21960;BME280;11144;43.030;25.108;2023-07-13T04:37:42;99392.28;;;24.22;70.36
21960;BME280;11144;43.030;25.108;2023-07-13T04:39:15;99389.31;;;24.43;70.20
21960;BME280;11144;43.030;25.108;2023-07-13T04:40:49;99390.38;;;24.62;68.50
21960;BME280;11144;43.030;25.108;2023-07-13T04:42:22;99397.06;;;24.85;69.33
21960;BME280;11144;43.030;25.108;2023-07-13T04:43:55;99392.72;;;25.04;67.42
21960;BME280;11144;43.030;25.108;2023-07-13T04:45:30;99407.88;;;25.39;68.56
21960;BME280;11144;43.030;25.108;2023-07-13T04:47:03;99395.97;;;25.60;65.84
21960;BME280;11144;43.030;25.108;2023-07-13T04:48:37;99408.19;;;25.86;64.78
21960;BME280;11144;43.030;25.108;2023-07-13T04:50:12;99409.91;;;26.11;65.75
21960;BME280;11144;43.030;25.108;2023-07-13T04:51:47;99394.47;;;26.26;63.92
21960;BME280;11144;43.030;25.108;2023-07-13T04:53:20;99398.31;;;26.49;63.55
21960;BME280;11144;43.030;25.108;2023-07-13T04:54:52;99406.13;;;26.79;64.17
21960;BME280;11144;43.030;25.108;2023-07-13T04:56:26;99405.13;;;26.99;62.80
21960;BME280;11144;43.030;25.108;2023-07-13T04:57:59;99399.72;;;27.23;62.33
21960;BME280;11144;43.030;25.108;2023-07-13T04:59:33;99398.78;;;27.56;61.64
21960;BME280;11144;43.030;25.108;2023-07-13T05:01:07;99394.63;;;27.82;60.52
21960;BME280;11144;43.030;25.108;2023-07-13T05:02:44;99398.88;;;28.07;60.84
21960;BME280;11144;43.030;25.108;2023-07-13T05:04:17;99398.63;;;28.22;57.74
21960;BME280;11144;43.030;25.108;2023-07-13T05:06:03;99393.75;;;28.24;58.34
21960;BME280;11144;43.030;25.108;2023-07-13T05:07:37;99394.03;;;28.22;58.19
21960;BME280;11144;43.030;25.108;2023-07-13T05:09:12;99399.75;;;28.34;58.11
21960;BME280;11144;43.030;25.108;2023-07-13T05:10:47;99393.91;;;28.46;58.14
21960;BME280;11144;43.030;25.108;2023-07-13T05:12:21;99386.06;;;28.63;57.75
21960;BME280;11144;43.030;25.108;2023-07-13T05:13:56;99395.50;;;28.93;55.17
21960;BME280;11144;43.030;25.108;2023-07-13T05:15:29;99401.75;;;29.21;55.24
21960;BME280;11144;43.030;25.108;2023-07-13T05:17:02;99392.00;;;29.47;54.60
21960;BME280;11144;43.030;25.108;2023-07-13T05:18:35;99395.53;;;29.69;54.40
21960;BME280;11144;43.030;25.108;2023-07-13T05:20:10;99396.28;;;29.75;52.98
21960;BME280;11144;43.030;25.108;2023-07-13T05:21:44;99394.44;;;29.84;53.14
21960;BME280;11144;43.030;25.108;2023-07-13T05:23:17;99390.19;;;29.92;52.76
21960;BME280;11144;43.030;25.108;2023-07-13T05:24:49;99392.84;;;30.05;51.85
21960;BME280;11144;43.030;25.108;2023-07-13T05:26:23;99393.44;;;30.38;51.16
21960;BME280;11144;43.030;25.108;2023-07-13T05:27:56;99387.69;;;30.62;49.75
21960;BME280;11144;43.030;25.108;2023-07-13T05:29:29;99386.72;;;30.57;48.91
21960;BME280;11144;43.030;25.108;2023-07-13T05:31:02;99393.44;;;30.38;49.54
21960;BME280;11144;43.030;25.108;2023-07-13T05:32:35;99395.56;;;30.27;49.54
21960;BME280;11144;43.030;25.108;2023-07-13T05:34:07;99398.22;;;30.41;49.70
21960;BME280;11144;43.030;25.108;2023-07-13T05:35:40;99392.47;;;30.65;48.21
21960;BME280;11144;43.030;25.108;2023-07-13T05:37:14;99390.94;;;30.81;48.52
21960;BME280;11144;43.030;25.108;2023-07-13T05:38:47;99391.03;;;30.98;47.38
21960;BME280;11144;43.030;25.108;2023-07-13T05:40:20;99386.81;;;31.22;46.91
21960;BME280;11144;43.030;25.108;2023-07-13T05:41:53;99394.09;;;31.44;46.20
21960;BME280;11144;43.030;25.108;2023-07-13T05:43:25;99388.84;;;31.56;45.00
21960;BME280;11144;43.030;25.108;2023-07-13T05:44:59;99383.88;;;31.58;45.12
21960;BME280;11144;43.030;25.108;2023-07-13T05:46:31;99393.31;;;31.78;45.52
21960;BME280;11144;43.030;25.108;2023-07-13T05:48:05;99389.34;;;32.10;44.61
21960;BME280;11144;43.030;25.108;2023-07-13T05:49:38;99398.25;;;32.36;44.29
21960;BME280;11144;43.030;25.108;2023-07-13T05:51:11;99392.66;;;32.49;42.98
21960;BME280;11144;43.030;25.108;2023-07-13T05:52:46;99391.50;;;32.67;43.28
21960;BME280;11144;43.030;25.108;2023-07-13T05:54:18;99394.13;;;32.85;42.30
21960;BME280;11144;43.030;25.108;2023-07-13T05:55:54;99387.63;;;33.15;41.55
21960;BME280;11144;43.030;25.108;2023-07-13T05:57:26;99384.88;;;33.23;40.86
21960;BME280;11144;43.030;25.108;2023-07-13T05:59:00;99386.75;;;33.31;41.90
21960;BME280;11144;43.030;25.108;2023-07-13T06:00:32;99392.31;;;33.35;41.51
21960;BME280;11144;43.030;25.108;2023-07-13T06:02:05;99388.00;;;33.34;40.77
21960;BME280;11144;43.030;25.108;2023-07-13T06:03:39;99387.94;;;33.42;41.24
21960;BME280;11144;43.030;25.108;2023-07-13T06:05:12;99392.19;;;33.61;40.61
21960;BME280;11144;43.030;25.108;2023-07-13T06:06:44;99393.84;;;33.74;39.08
21960;BME280;11144;43.030;25.108;2023-07-13T06:08:19;99387.06;;;33.80;39.47
21960;BME280;11144;43.030;25.108;2023-07-13T06:09:52;99384.63;;;34.07;39.39
21960;BME280;11144;43.030;25.108;2023-07-13T06:11:26;99381.59;;;34.21;38.74
21960;BME280;11144;43.030;25.108;2023-07-13T06:12:59;99383.06;;;34.19;37.66
21960;BME280;11144;43.030;25.108;2023-07-13T06:14:32;99382.75;;;34.32;38.11
21960;BME280;11144;43.030;25.108;2023-07-13T06:16:06;99384.94;;;34.39;37.21
21960;BME280;11144;43.030;25.108;2023-07-13T06:17:38;99386.88;;;34.38;35.70
21960;BME280;11144;43.030;25.108;2023-07-13T06:19:12;99387.34;;;34.40;37.10
21960;BME280;11144;43.030;25.108;2023-07-13T06:20:44;99391.06;;;34.48;36.38
21960;BME280;11144;43.030;25.108;2023-07-13T06:22:17;99389.00;;;34.77;35.53
21960;BME280;11144;43.030;25.108;2023-07-13T06:23:52;99388.41;;;34.60;35.18
21960;BME280;11144;43.030;25.108;2023-07-13T06:25:26;99388.78;;;34.38;35.02
21960;BME280;11144;43.030;25.108;2023-07-13T06:26:59;99381.59;;;34.21;34.08
21960;BME280;11144;43.030;25.108;2023-07-13T06:28:32;99384.75;;;34.23;34.47
21960;BME280;11144;43.030;25.108;2023-07-13T06:30:06;99389.09;;;34.57;33.80
21960;BME280;11144;43.030;25.108;2023-07-13T06:31:38;99388.66;;;34.67;34.62
21960;BME280;11144;43.030;25.108;2023-07-13T06:33:12;99392.84;;;34.76;34.63
21960;BME280;11144;43.030;25.108;2023-07-13T06:34:44;99387.31;;;34.97;33.33
21960;BME280;11144;43.030;25.108;2023-07-13T06:36:18;99393.94;;;35.20;33.21
21960;BME280;11144;43.030;25.108;2023-07-13T06:37:50;99386.44;;;35.53;32.61
21960;BME280;11144;43.030;25.108;2023-07-13T06:39:24;99385.63;;;35.93;32.51
21960;BME280;11144;43.030;25.108;2023-07-13T06:40:58;99385.19;;;35.91;31.42
21960;BME280;11144;43.030;25.108;2023-07-13T06:42:30;99381.38;;;35.68;32.46
21960;BME280;11144;43.030;25.108;2023-07-13T06:44:04;99391.03;;;35.65;32.80
21960;BME280;11144;43.030;25.108;2023-07-13T06:45:40;99381.38;;;35.68;31.21
21960;BME280;11144;43.030;25.108;2023-07-13T06:47:14;99389.81;;;35.38;32.24
21960;BME280;11144;43.030;25.108;2023-07-13T06:48:47;99380.25;;;34.96;32.96
21960;BME280;11144;43.030;25.108;2023-07-13T06:50:20;99382.13;;;35.28;31.93
21960;BME280;11144;43.030;25.108;2023-07-13T06:51:52;99378.00;;;35.46;31.30
21960;BME280;11144;43.030;25.108;2023-07-13T06:53:26;99376.66;;;35.80;31.74
21960;BME280;11144;43.030;25.108;2023-07-13T06:54:59;99378.56;;;35.92;31.82
21960;BME280;11144;43.030;25.108;2023-07-13T06:56:33;99377.59;;;36.12;31.12
21960;BME280;11144;43.030;25.108;2023-07-13T06:58:06;99381.84;;;36.25;30.66
21960;BME280;11144;43.030;25.108;2023-07-13T06:59:39;99378.97;;;36.34;30.71
21960;BME280;11144;43.030;25.108;2023-07-13T07:01:12;99364.25;;;36.38;30.05
21960;BME280;11144;43.030;25.108;2023-07-13T07:02:46;99363.50;;;36.10;30.30
21960;BME280;11144;43.030;25.108;2023-07-13T07:04:19;99374.44;;;36.10;30.85
21960;BME280;11144;43.030;25.108;2023-07-13T07:05:52;99373.34;;;36.27;30.36
21960;BME280;11144;43.030;25.108;2023-07-13T07:07:25;99375.59;;;36.52;30.34
21960;BME280;11144;43.030;25.108;2023-07-13T07:08:58;99377.72;;;36.74;29.70
21960;BME280;11144;43.030;25.108;2023-07-13T07:10:32;99373.13;;;36.78;30.22
21960;BME280;11144;43.030;25.108;2023-07-13T07:12:05;99375.84;;;36.78;29.83
21960;BME280;11144;43.030;25.108;2023-07-13T07:13:38;99372.00;;;36.79;29.07
21960;BME280;11144;43.030;25.108;2023-07-13T07:15:12;99365.19;;;36.73;29.27
21960;BME280;11144;43.030;25.108;2023-07-13T07:16:45;99366.09;;;36.77;29.04
21960;BME280;11144;43.030;25.108;2023-07-13T07:18:18;99367.22;;;36.76;29.04
21960;BME280;11144;43.030;25.108;2023-07-13T07:19:51;99365.72;;;36.63;29.53
21960;BME280;11144;43.030;25.108;2023-07-13T07:21:25;99370.50;;;36.66;29.97
21960;BME280;11144;43.030;25.108;2023-07-13T07:22:59;99377.97;;;36.69;30.28
21960;BME280;11144;43.030;25.108;2023-07-13T07:24:31;99369.63;;;36.93;30.49
21960;BME280;11144;43.030;25.108;2023-07-13T07:26:06;99368.34;;;37.07;29.74
21960;BME280;11144;43.030;25.108;2023-07-13T07:27:40;99359.25;;;37.18;29.92
21960;BME280;11144;43.030;25.108;2023-07-13T07:29:16;99359.47;;;37.44;29.25
21960;BME280;11144;43.030;25.108;2023-07-13T07:30:53;99352.16;;;37.67;29.17
21960;BME280;11144;43.030;25.108;2023-07-13T07:32:30;99362.06;;;37.91;28.49
21960;BME280;11144;43.030;25.108;2023-07-13T07:34:22;99350.31;;;38.10;28.30
21960;BME280;11144;43.030;25.108;2023-07-13T07:35:56;99361.31;;;38.13;28.90
21960;BME280;11144;43.030;25.108;2023-07-13T07:37:31;99357.75;;;37.90;28.47
21960;BME280;11144;43.030;25.108;2023-07-13T07:39:07;99351.66;;;37.62;28.17
21960;BME280;11144;43.030;25.108;2023-07-13T07:40:41;99353.25;;;37.44;28.66
21960;BME280;11144;43.030;25.108;2023-07-13T07:42:18;99349.41;;;37.48;28.43
21960;BME280;11144;43.030;25.108;2023-07-13T07:43:51;99351.00;;;37.68;28.23
21960;BME280;11144;43.030;25.108;2023-07-13T07:45:24;99344.09;;;37.75;27.58
21960;BME280;11144;43.030;25.108;2023-07-13T07:46:56;99344.59;;;37.99;27.56
21960;BME280;11144;43.030;25.108;2023-07-13T07:48:30;99352.97;;;38.25;27.88
21960;BME280;11144;43.030;25.108;2023-07-13T07:50:02;99348.47;;;38.37;27.24
21960;BME280;11144;43.030;25.108;2023-07-13T07:51:36;99351.56;;;38.58;27.44
21960;BME280;11144;43.030;25.108;2023-07-13T07:53:08;99348.34;;;38.75;26.87
21960;BME280;11144;43.030;25.108;2023-07-13T07:54:42;99351.56;;;38.58;26.77
21960;BME280;11144;43.030;25.108;2023-07-13T07:56:17;99350.03;;;38.38;27.61
21960;BME280;11144;43.030;25.108;2023-07-13T07:57:56;99346.88;;;38.35;27.94
21960;BME280;11144;43.030;25.108;2023-07-13T07:59:32;99347.06;;;38.46;27.84
21960;BME280;11144;43.030;25.108;2023-07-13T08:01:07;99347.69;;;38.17;27.91
21960;BME280;11144;43.030;25.108;2023-07-13T08:02:45;99340.13;;;38.10;28.09
21960;BME280;11144;43.030;25.108;2023-07-13T08:04:21;99351.06;;;38.29;27.93
21960;BME280;11144;43.030;25.108;2023-07-13T08:05:56;99349.03;;;38.46;28.28
21960;BME280;11144;43.030;25.108;2023-07-13T08:07:49;99352.09;;;38.67;27.83
21960;BME280;11144;43.030;25.108;2023-07-13T08:09:23;99349.94;;;38.76;27.94
21960;BME280;11144;43.030;25.108;2023-07-13T08:10:56;99344.38;;;38.72;27.87
21960;BME280;11144;43.030;25.108;2023-07-13T08:12:33;99337.50;;;38.82;27.89
21960;BME280;11144;43.030;25.108;2023-07-13T08:14:11;99340.72;;;38.87;27.54